createdAt,value
2023-03-30T00:05:05.981Z,5.24
2023-03-30T00:10:31.141Z,5.04
2023-03-30T00:15:53.979Z,4.85
2023-03-30T00:21:18.740Z,4.68
2023-03-30T00:26:41.935Z,4.53
2023-03-30T00:32:04.666Z,4.52
2023-03-30T00:37:28.084Z,4.54
2023-03-30T00:42:51.285Z,4.51
2023-03-30T00:48:22.407Z,4.44
2023-03-30T00:53:53.071Z,4.16
2023-03-30T00:59:16.175Z,4.04
2023-03-30T01:04:39.304Z,4.29
2023-03-30T01:10:01.961Z,4.48
2023-03-30T01:15:25.589Z,4.45
2023-03-30T01:20:58.942Z,4.38
2023-03-30T01:27:14.370Z,4.39
2023-03-30T01:33:17.661Z,4.38
2023-03-30T01:39:04.967Z,4.39
2023-03-30T01:44:50.663Z,4.42
2023-03-30T01:50:42.060Z,4.41
2023-03-30T01:56:18.628Z,4.71
2023-03-30T02:01:43.578Z,4.80
2023-03-30T02:07:11.429Z,4.84
2023-03-30T02:12:36.399Z,4.79
2023-03-30T02:17:59.034Z,4.75
2023-03-30T02:23:23.374Z,4.65
2023-03-30T02:28:46.567Z,4.63
2023-03-30T02:34:30.244Z,4.59
2023-03-30T02:40:21.378Z,4.53
2023-03-30T02:46:12.070Z,4.40
2023-03-30T02:51:58.189Z,4.19
2023-03-30T02:58:06.726Z,4.03
2023-03-30T03:03:42.494Z,3.90
2023-03-30T03:09:06.918Z,3.80
2023-03-30T03:14:30.809Z,3.77
2023-03-30T03:20:04.420Z,3.82
2023-03-30T03:25:27.579Z,3.69
2023-03-30T03:30:50.511Z,3.64
2023-03-30T03:36:13.576Z,3.60
2023-03-30T03:41:36.317Z,3.63
2023-03-30T03:46:58.801Z,3.65
2023-03-30T03:52:21.300Z,3.57
2023-03-30T03:57:45.295Z,3.48
2023-03-30T04:03:09.443Z,3.41
2023-03-30T04:08:32.260Z,3.42
2023-03-30T04:13:54.832Z,3.37
2023-03-30T04:19:17.356Z,3.36
2023-03-30T04:24:40.344Z,3.33
2023-03-30T04:30:04.041Z,3.40
2023-03-30T04:35:27.945Z,3.49
2023-03-30T04:40:50.375Z,3.57
2023-03-30T04:46:14.173Z,3.61
2023-03-30T04:51:37.836Z,3.63
2023-03-30T04:57:00.965Z,3.66
2023-03-30T05:02:24.459Z,3.67
2023-03-30T05:07:47.061Z,3.67
2023-03-30T05:13:11.081Z,3.73
2023-03-30T05:18:33.582Z,3.80
2023-03-30T05:23:56.586Z,3.88
2023-03-30T05:29:18.915Z,4.03
2023-03-30T05:34:42.376Z,4.09
2023-03-30T05:40:06.809Z,4.17
2023-03-30T05:45:29.402Z,4.22
2023-03-30T05:50:54.072Z,4.31
2023-03-30T05:56:17.126Z,4.37
2023-03-30T06:01:42.236Z,4.49
2023-03-30T06:07:04.736Z,4.67
2023-03-30T06:12:27.304Z,4.83
2023-03-30T06:23:46.652Z,4.96
2023-03-30T06:29:09.290Z,5.01
2023-03-30T06:34:32.585Z,5.18
2023-03-30T06:39:57.946Z,5.20
2023-03-30T06:45:20.862Z,5.28
2023-03-30T06:50:44.014Z,5.38
2023-03-30T06:56:12.351Z,5.52
2023-03-30T07:01:35.537Z,5.54
2023-03-30T07:06:58.093Z,5.45
2023-03-30T07:12:20.694Z,5.50
2023-03-30T07:17:43.700Z,5.56
2023-03-30T07:23:06.434Z,5.68
2023-03-30T07:28:28.846Z,5.86
2023-03-30T07:33:51.380Z,6.03
2023-03-30T07:39:13.908Z,6.05
2023-03-30T07:44:36.438Z,6.09
2023-03-30T07:49:58.807Z,6.04
2023-03-30T07:55:21.428Z,6.20
2023-03-30T08:00:45.232Z,6.28
2023-03-30T08:06:13.335Z,6.35
2023-03-30T08:11:36.551Z,6.36
2023-03-30T08:16:58.812Z,6.56
2023-03-30T08:22:21.277Z,6.68
2023-03-30T08:27:43.704Z,6.86
2023-03-30T08:33:06.289Z,7.16
2023-03-30T08:38:29.588Z,7.31
2023-03-30T08:44:21.018Z,7.38
2023-03-30T08:50:06.994Z,7.68
2023-03-30T08:55:37.525Z,7.67
2023-03-30T09:01:37.046Z,7.84
2023-03-30T09:07:07.226Z,7.74
2023-03-30T09:12:52.904Z,8.01
2023-03-30T09:18:22.729Z,8.35
2023-03-30T09:23:47.493Z,8.69
2023-03-30T09:29:30.093Z,8.72
2023-03-30T09:35:03.824Z,8.81
2023-03-30T09:41:00.020Z,8.81
2023-03-30T09:46:33.814Z,8.87
2023-03-30T09:52:09.601Z,9.02
2023-03-30T09:57:45.667Z,8.69
2023-03-30T10:03:14.069Z,8.69
2023-03-30T10:08:38.397Z,8.73
2023-03-30T10:14:05.674Z,8.56
2023-03-30T10:19:31.278Z,8.63
2023-03-30T10:24:57.395Z,8.80
2023-03-30T10:30:28.701Z,9.08
2023-03-30T10:35:57.038Z,9.28
2023-03-30T10:41:29.752Z,9.39
2023-03-30T10:46:52.926Z,9.63
2023-03-30T10:52:48.798Z,10.39
2023-03-30T10:58:13.712Z,10.80
2023-03-30T11:03:42.201Z,10.91
2023-03-30T11:09:10.794Z,10.68
2023-03-30T11:14:50.048Z,10.48
2023-03-30T11:20:38.027Z,10.42
2023-03-30T11:26:32.360Z,10.92
2023-03-30T11:32:02.829Z,11.11
2023-03-30T11:37:39.490Z,11.60
2023-03-30T11:43:02.370Z,11.44
2023-03-30T11:49:16.886Z,11.40
2023-03-30T11:55:03.561Z,11.07
2023-03-30T12:00:48.180Z,10.76
2023-03-30T12:06:46.636Z,10.98
2023-03-30T12:12:24.792Z,11.03
2023-03-30T12:18:09.182Z,11.09
2023-03-30T12:24:11.293Z,10.86
2023-03-30T12:41:04.456Z,10.81
2023-03-30T12:46:38.525Z,10.84
2023-03-30T12:52:46.950Z,11.13
2023-03-30T12:58:49.290Z,11.17
2023-03-30T13:04:24.266Z,11.19
2023-03-30T13:10:32.807Z,11.25
2023-03-30T13:16:01.474Z,11.11
2023-03-30T13:21:29.605Z,11.10
2023-03-30T13:27:00.261Z,11.03
2023-03-30T13:32:33.824Z,10.99
2023-03-30T13:38:29.417Z,11.02
2023-03-30T13:44:28.990Z,11.06
2023-03-30T13:50:05.542Z,11.10
2023-03-30T13:55:41.304Z,11.10
2023-03-30T14:01:23.027Z,11.11
2023-03-30T14:06:51.106Z,10.81
2023-03-30T14:12:17.412Z,10.72
2023-03-30T14:17:41.558Z,10.67
2023-03-30T14:23:06.881Z,10.67
2023-03-30T14:28:42.985Z,10.77
2023-03-30T14:34:06.321Z,10.83
2023-03-30T14:39:30.994Z,10.75
2023-03-30T14:44:57.998Z,10.68
2023-03-30T14:50:22.853Z,10.63
2023-03-30T14:55:46.578Z,10.59
2023-03-30T15:01:13.026Z,10.62
2023-03-30T15:06:38.687Z,10.81
2023-03-30T15:12:07.223Z,11.07
2023-03-30T15:17:33.146Z,11.28
2023-03-30T15:23:06.831Z,11.58
2023-03-30T15:28:36.760Z,11.80
2023-03-30T15:34:23.528Z,11.73
2023-03-30T15:39:52.210Z,11.54
2023-03-30T15:45:24.091Z,11.58
2023-03-30T15:50:48.356Z,11.55
2023-03-30T15:56:13.409Z,11.51
2023-03-30T16:01:49.303Z,11.47
2023-03-30T16:07:30.710Z,11.45
2023-03-30T16:12:56.904Z,11.42
2023-03-30T16:18:19.307Z,11.36
2023-03-30T16:23:41.783Z,11.31
2023-03-30T16:29:05.766Z,11.26
2023-03-30T16:34:28.150Z,11.20
2023-03-30T16:39:50.518Z,11.11
2023-03-30T16:45:14.527Z,11.10
2023-03-30T16:50:50.399Z,11.03
2023-03-30T16:56:12.903Z,11.01
2023-03-30T17:01:36.915Z,10.94
2023-03-30T17:06:59.991Z,10.69
2023-03-30T17:12:22.499Z,10.39
2023-03-30T17:17:44.963Z,10.16
2023-03-30T17:23:10.496Z,9.92
2023-03-30T17:28:42.582Z,9.82
2023-03-30T17:34:07.464Z,9.71
2023-03-30T17:39:33.780Z,9.64
2023-03-30T17:44:56.268Z,9.61
2023-03-30T17:50:28.057Z,9.50
2023-03-30T17:56:02.005Z,9.51
2023-03-30T18:01:25.653Z,9.30
2023-03-30T18:06:49.094Z,9.21
2023-03-30T18:12:11.460Z,8.99
2023-03-30T18:17:34.327Z,8.94
2023-03-30T18:22:56.939Z,8.88
2023-03-30T18:28:22.639Z,8.79
2023-03-30T18:33:45.072Z,8.71
2023-03-30T18:39:08.660Z,8.53
2023-03-30T18:44:31.971Z,8.36
2023-03-30T18:49:54.253Z,8.32
2023-03-30T18:55:17.317Z,8.31
2023-03-30T19:00:42.213Z,8.46
2023-03-30T19:06:06.342Z,8.41
2023-03-30T19:11:35.672Z,8.37
2023-03-30T19:16:58.113Z,8.57
2023-03-30T19:22:20.513Z,9.14
2023-03-30T19:27:59.277Z,9.30
2023-03-30T19:33:09.432Z,9.28
2023-03-30T19:38:33.882Z,9.24
2023-03-30T19:43:56.251Z,9.12
2023-03-30T19:49:20.236Z,9.05
2023-03-30T19:54:52.545Z,9.07
2023-03-30T20:00:16.513Z,8.91
2023-03-30T20:05:39.596Z,8.84
2023-03-30T20:11:03.801Z,8.71
2023-03-30T20:16:29.798Z,8.65
2023-03-30T20:21:52.279Z,8.59
2023-03-30T20:27:15.054Z,8.52
2023-03-30T20:32:37.498Z,8.42
2023-03-30T20:37:59.962Z,8.42
2023-03-30T20:43:22.277Z,8.35
2023-03-30T20:48:47.235Z,8.33
2023-03-30T20:54:10.885Z,8.28
2023-03-30T20:59:33.764Z,8.21
2023-03-30T21:10:35.182Z,8.31
2023-03-30T21:16:07.085Z,8.22
2023-03-30T21:21:30.477Z,8.24
2023-03-30T21:26:52.886Z,8.28
2023-03-30T21:32:15.302Z,8.31
2023-03-30T21:37:37.694Z,8.35
2023-03-30T21:43:00.286Z,8.39
2023-03-30T21:48:23.209Z,8.42
2023-03-30T21:53:48.689Z,8.42
2023-03-30T21:59:11.515Z,8.43
2023-03-30T22:04:33.894Z,8.43
2023-03-30T22:09:57.773Z,8.42
2023-03-30T22:15:22.283Z,8.40
2023-03-30T22:20:46.412Z,8.41
2023-03-30T22:26:09.783Z,8.40
2023-03-30T22:31:33.111Z,8.41
2023-03-30T22:36:55.447Z,8.42
2023-03-30T22:42:18.662Z,8.45
2023-03-30T22:47:40.943Z,8.47
2023-03-30T22:53:04.053Z,8.48
2023-03-30T22:58:26.996Z,8.47
2023-03-30T23:03:49.587Z,8.48
2023-03-30T23:09:13.947Z,8.49
2023-03-30T23:14:38.162Z,8.49
2023-03-30T23:20:00.771Z,8.50
2023-03-30T23:25:25.680Z,8.48
2023-03-30T23:30:49.881Z,8.49
2023-03-30T23:36:17.645Z,8.49
2023-03-30T23:41:41.181Z,8.46
2023-03-30T23:47:03.460Z,8.41
2023-03-30T23:52:26.560Z,8.36
2023-03-30T23:57:48.876Z,8.31
